sensor_id;sensor_type;location;lat;lon;timestamp;P1;durP1;ratioP1;P2;durP2;ratioP2
28836;SDS011;50669;50.982;11.022;2022-08-19T00:00:35;28.85;;;23.40;;
28836;SDS011;50669;50.982;11.022;2022-08-19T00:03:04;30.15;;;25.95;;
28836;SDS011;50669;50.982;11.022;2022-08-19T00:05:32;26.85;;;23.13;;
28836;SDS011;50669;50.982;11.022;2022-08-19T00:08:01;26.63;;;22.08;;
28836;SDS011;50669;50.982;11.022;2022-08-19T00:10:26;24.88;;;19.65;;
28836;SDS011;50669;50.982;11.022;2022-08-19T00:12:54;23.10;;;19.77;;
28836;SDS011;50669;50.982;11.022;2022-08-19T00:15:21;26.05;;;22.52;;
28836;SDS011;50669;50.982;11.022;2022-08-19T00:17:49;26.00;;;21.73;;
28836;SDS011;50669;50.982;11.022;2022-08-19T00:20:18;23.75;;;21.25;;
28836;SDS011;50669;50.982;11.022;2022-08-19T00:22:45;28.40;;;21.88;;
28836;SDS011;50669;50.982;11.022;2022-08-19T00:25:12;20.83;;;18.15;;
28836;SDS011;50669;50.982;11.022;2022-08-19T00:27:40;20.00;;;17.88;;
28836;SDS011;50669;50.982;11.022;2022-08-19T00:30:06;20.40;;;18.05;;
28836;SDS011;50669;50.982;11.022;2022-08-19T00:32:34;21.42;;;17.38;;
28836;SDS011;50669;50.982;11.022;2022-08-19T00:35:00;20.58;;;17.58;;
28836;SDS011;50669;50.982;11.022;2022-08-19T00:37:29;18.58;;;16.58;;
28836;SDS011;50669;50.982;11.022;2022-08-19T00:39:54;20.08;;;17.33;;
28836;SDS011;50669;50.982;11.022;2022-08-19T00:42:21;23.92;;;17.92;;
28836;SDS011;50669;50.982;11.022;2022-08-19T00:44:53;18.80;;;16.73;;
28836;SDS011;50669;50.982;11.022;2022-08-19T00:47:18;18.10;;;16.25;;
28836;SDS011;50669;50.982;11.022;2022-08-19T00:49:48;17.85;;;16.05;;
28836;SDS011;50669;50.982;11.022;2022-08-19T00:52:21;20.73;;;17.30;;
28836;SDS011;50669;50.982;11.022;2022-08-19T00:54:54;17.08;;;15.35;;
28836;SDS011;50669;50.982;11.022;2022-08-19T00:57:22;16.80;;;15.10;;
28836;SDS011;50669;50.982;11.022;2022-08-19T00:59:57;20.20;;;16.67;;
28836;SDS011;50669;50.982;11.022;2022-08-19T01:02:24;16.70;;;14.90;;
28836;SDS011;50669;50.982;11.022;2022-08-19T01:04:53;17.45;;;15.57;;
28836;SDS011;50669;50.982;11.022;2022-08-19T01:09:49;16.95;;;15.27;;
28836;SDS011;50669;50.982;11.022;2022-08-19T01:12:17;16.90;;;15.20;;
28836;SDS011;50669;50.982;11.022;2022-08-19T01:14:46;20.02;;;16.83;;
28836;SDS011;50669;50.982;11.022;2022-08-19T01:17:14;18.25;;;15.38;;
28836;SDS011;50669;50.982;11.022;2022-08-19T01:19:41;17.55;;;15.65;;
28836;SDS011;50669;50.982;11.022;2022-08-19T01:24:47;17.33;;;15.43;;
28836;SDS011;50669;50.982;11.022;2022-08-19T01:27:18;18.40;;;16.58;;
28836;SDS011;50669;50.982;11.022;2022-08-19T01:29:46;18.52;;;16.38;;
28836;SDS011;50669;50.982;11.022;2022-08-19T01:32:15;19.50;;;16.38;;
28836;SDS011;50669;50.982;11.022;2022-08-19T01:34:42;17.77;;;15.90;;
28836;SDS011;50669;50.982;11.022;2022-08-19T01:37:13;18.92;;;17.02;;
28836;SDS011;50669;50.982;11.022;2022-08-19T01:39:41;18.88;;;16.90;;
28836;SDS011;50669;50.982;11.022;2022-08-19T01:42:08;20.15;;;18.00;;
28836;SDS011;50669;50.982;11.022;2022-08-19T01:44:37;20.80;;;17.05;;
28836;SDS011;50669;50.982;11.022;2022-08-19T01:47:07;17.98;;;16.02;;
28836;SDS011;50669;50.982;11.022;2022-08-19T01:49:36;17.98;;;16.05;;
28836;SDS011;50669;50.982;11.022;2022-08-19T01:52:04;17.30;;;15.50;;
28836;SDS011;50669;50.982;11.022;2022-08-19T01:54:33;16.92;;;15.32;;
28836;SDS011;50669;50.982;11.022;2022-08-19T01:57:00;20.08;;;16.27;;
28836;SDS011;50669;50.982;11.022;2022-08-19T01:59:29;18.25;;;16.40;;
28836;SDS011;50669;50.982;11.022;2022-08-19T02:01:55;18.33;;;15.82;;
28836;SDS011;50669;50.982;11.022;2022-08-19T02:04:21;18.75;;;16.75;;
28836;SDS011;50669;50.982;11.022;2022-08-19T02:06:48;18.75;;;16.80;;
28836;SDS011;50669;50.982;11.022;2022-08-19T02:09:13;18.75;;;16.75;;
28836;SDS011;50669;50.982;11.022;2022-08-19T02:11:42;17.63;;;15.80;;
28836;SDS011;50669;50.982;11.022;2022-08-19T02:14:12;18.33;;;16.42;;
28836;SDS011;50669;50.982;11.022;2022-08-19T02:16:38;18.48;;;16.35;;
28836;SDS011;50669;50.982;11.022;2022-08-19T02:19:06;18.75;;;16.92;;
28836;SDS011;50669;50.982;11.022;2022-08-19T02:21:35;18.88;;;16.85;;
28836;SDS011;50669;50.982;11.022;2022-08-19T02:24:01;19.92;;;17.85;;
28836;SDS011;50669;50.982;11.022;2022-08-19T02:26:27;19.60;;;17.10;;
28836;SDS011;50669;50.982;11.022;2022-08-19T02:28:58;19.67;;;17.63;;
28836;SDS011;50669;50.982;11.022;2022-08-19T02:31:25;20.73;;;18.70;;
28836;SDS011;50669;50.982;11.022;2022-08-19T02:33:53;20.75;;;18.52;;
28836;SDS011;50669;50.982;11.022;2022-08-19T02:36:21;21.35;;;18.10;;
28836;SDS011;50669;50.982;11.022;2022-08-19T02:38:47;20.35;;;18.23;;
28836;SDS011;50669;50.982;11.022;2022-08-19T02:41:17;22.30;;;19.80;;
28836;SDS011;50669;50.982;11.022;2022-08-19T02:43:47;22.80;;;19.63;;
28836;SDS011;50669;50.982;11.022;2022-08-19T02:48:47;21.55;;;19.30;;
28836;SDS011;50669;50.982;11.022;2022-08-19T02:51:21;21.17;;;18.92;;
28836;SDS011;50669;50.982;11.022;2022-08-19T02:53:48;24.13;;;19.75;;
28836;SDS011;50669;50.982;11.022;2022-08-19T02:56:14;23.35;;;20.88;;
28836;SDS011;50669;50.982;11.022;2022-08-19T02:58:40;24.35;;;20.48;;
28836;SDS011;50669;50.982;11.022;2022-08-19T03:01:06;25.25;;;21.02;;
28836;SDS011;50669;50.982;11.022;2022-08-19T03:03:32;24.00;;;20.00;;
28836;SDS011;50669;50.982;11.022;2022-08-19T03:06:07;23.60;;;21.08;;
28836;SDS011;50669;50.982;11.022;2022-08-19T03:08:35;24.65;;;20.02;;
28836;SDS011;50669;50.982;11.022;2022-08-19T03:11:01;23.08;;;19.90;;
28836;SDS011;50669;50.982;11.022;2022-08-19T03:13:27;24.75;;;20.83;;
28836;SDS011;50669;50.982;11.022;2022-08-19T03:15:58;23.58;;;20.52;;
28836;SDS011;50669;50.982;11.022;2022-08-19T03:18:23;23.08;;;20.50;;
28836;SDS011;50669;50.982;11.022;2022-08-19T03:20:52;25.63;;;21.88;;
28836;SDS011;50669;50.982;11.022;2022-08-19T03:23:19;23.77;;;20.95;;
28836;SDS011;50669;50.982;11.022;2022-08-19T03:25:46;25.58;;;21.75;;
28836;SDS011;50669;50.982;11.022;2022-08-19T03:28:13;29.30;;;23.05;;
28836;SDS011;50669;50.982;11.022;2022-08-19T03:30:40;26.63;;;23.73;;
28836;SDS011;50669;50.982;11.022;2022-08-19T03:33:07;26.10;;;22.58;;
28836;SDS011;50669;50.982;11.022;2022-08-19T03:35:37;26.55;;;22.52;;
28836;SDS011;50669;50.982;11.022;2022-08-19T03:38:05;27.40;;;22.25;;
28836;SDS011;50669;50.982;11.022;2022-08-19T03:40:31;25.13;;;21.90;;
28836;SDS011;50669;50.982;11.022;2022-08-19T03:42:59;25.15;;;21.15;;
28836;SDS011;50669;50.982;11.022;2022-08-19T03:45:25;23.88;;;20.90;;
28836;SDS011;50669;50.982;11.022;2022-08-19T03:47:52;25.35;;;21.23;;
28836;SDS011;50669;50.982;11.022;2022-08-19T03:50:18;25.88;;;22.10;;
28836;SDS011;50669;50.982;11.022;2022-08-19T03:52:47;22.50;;;19.67;;
28836;SDS011;50669;50.982;11.022;2022-08-19T03:55:15;24.00;;;20.60;;
28836;SDS011;50669;50.982;11.022;2022-08-19T03:57:41;23.20;;;20.10;;
28836;SDS011;50669;50.982;11.022;2022-08-19T04:00:07;25.50;;;20.00;;
28836;SDS011;50669;50.982;11.022;2022-08-19T04:02:34;23.63;;;20.20;;
28836;SDS011;50669;50.982;11.022;2022-08-19T04:04:59;23.83;;;19.92;;
28836;SDS011;50669;50.982;11.022;2022-08-19T04:07:25;23.15;;;20.65;;
28836;SDS011;50669;50.982;11.022;2022-08-19T04:09:51;19.50;;;17.17;;
28836;SDS011;50669;50.982;11.022;2022-08-19T04:12:18;22.40;;;19.65;;
28836;SDS011;50669;50.982;11.022;2022-08-19T04:14:45;21.88;;;19.58;;
28836;SDS011;50669;50.982;11.022;2022-08-19T04:17:11;23.15;;;20.40;;
28836;SDS011;50669;50.982;11.022;2022-08-19T04:19:39;22.65;;;18.60;;
28836;SDS011;50669;50.982;11.022;2022-08-19T04:22:07;21.98;;;19.65;;
28836;SDS011;50669;50.982;11.022;2022-08-19T04:24:33;24.60;;;21.98;;
28836;SDS011;50669;50.982;11.022;2022-08-19T04:27:02;26.42;;;22.65;;
28836;SDS011;50669;50.982;11.022;2022-08-19T04:29:30;23.63;;;20.90;;
28836;SDS011;50669;50.982;11.022;2022-08-19T04:31:56;24.55;;;21.98;;
28836;SDS011;50669;50.982;11.022;2022-08-19T04:34:26;26.50;;;22.30;;
28836;SDS011;50669;50.982;11.022;2022-08-19T04:36:55;25.77;;;23.02;;
28836;SDS011;50669;50.982;11.022;2022-08-19T04:39:23;24.85;;;22.23;;
28836;SDS011;50669;50.982;11.022;2022-08-19T04:42:12;24.70;;;21.83;;
28836;SDS011;50669;50.982;11.022;2022-08-19T04:45:12;27.40;;;23.30;;
28836;SDS011;50669;50.982;11.022;2022-08-19T04:47:42;25.33;;;22.63;;
28836;SDS011;50669;50.982;11.022;2022-08-19T04:50:09;28.48;;;24.60;;
28836;SDS011;50669;50.982;11.022;2022-08-19T04:52:36;26.35;;;22.98;;
28836;SDS011;50669;50.982;11.022;2022-08-19T04:55:09;27.55;;;24.48;;
28836;SDS011;50669;50.982;11.022;2022-08-19T04:57:35;28.65;;;24.85;;
28836;SDS011;50669;50.982;11.022;2022-08-19T05:00:05;28.23;;;25.15;;
28836;SDS011;50669;50.982;11.022;2022-08-19T05:02:32;28.45;;;25.42;;
28836;SDS011;50669;50.982;11.022;2022-08-19T05:04:58;29.98;;;25.88;;
28836;SDS011;50669;50.982;11.022;2022-08-19T05:07:30;27.85;;;24.80;;
28836;SDS011;50669;50.982;11.022;2022-08-19T05:09:58;29.42;;;26.17;;
28836;SDS011;50669;50.982;11.022;2022-08-19T05:12:24;27.35;;;24.45;;
28836;SDS011;50669;50.982;11.022;2022-08-19T05:14:50;29.65;;;25.23;;
28836;SDS011;50669;50.982;11.022;2022-08-19T05:17:16;30.42;;;25.58;;
28836;SDS011;50669;50.982;11.022;2022-08-19T05:19:42;28.95;;;24.75;;
28836;SDS011;50669;50.982;11.022;2022-08-19T05:22:26;27.73;;;24.70;;
28836;SDS011;50669;50.982;11.022;2022-08-19T05:25:07;28.92;;;24.83;;
28836;SDS011;50669;50.982;11.022;2022-08-19T05:27:35;29.42;;;25.40;;
28836;SDS011;50669;50.982;11.022;2022-08-19T05:30:00;32.53;;;26.55;;
28836;SDS011;50669;50.982;11.022;2022-08-19T05:32:26;30.05;;;26.33;;
28836;SDS011;50669;50.982;11.022;2022-08-19T05:34:52;29.05;;;25.92;;
28836;SDS011;50669;50.982;11.022;2022-08-19T05:37:21;29.17;;;26.00;;
28836;SDS011;50669;50.982;11.022;2022-08-19T05:39:47;32.33;;;26.73;;
28836;SDS011;50669;50.982;11.022;2022-08-19T05:42:14;27.95;;;24.05;;
28836;SDS011;50669;50.982;11.022;2022-08-19T05:44:41;31.80;;;25.00;;
28836;SDS011;50669;50.982;11.022;2022-08-19T05:47:10;28.90;;;24.05;;
28836;SDS011;50669;50.982;11.022;2022-08-19T05:49:37;27.70;;;24.02;;
28836;SDS011;50669;50.982;11.022;2022-08-19T05:52:04;26.15;;;22.90;;
28836;SDS011;50669;50.982;11.022;2022-08-19T05:54:31;26.13;;;21.98;;
28836;SDS011;50669;50.982;11.022;2022-08-19T05:56:57;25.05;;;20.85;;
28836;SDS011;50669;50.982;11.022;2022-08-19T05:59:23;26.13;;;20.92;;
28836;SDS011;50669;50.982;11.022;2022-08-19T06:01:51;27.00;;;22.00;;
28836;SDS011;50669;50.982;11.022;2022-08-19T06:04:19;24.25;;;18.35;;
28836;SDS011;50669;50.982;11.022;2022-08-19T06:06:48;22.48;;;18.75;;
28836;SDS011;50669;50.982;11.022;2022-08-19T06:09:16;21.90;;;18.88;;
28836;SDS011;50669;50.982;11.022;2022-08-19T06:11:46;20.65;;;17.58;;
28836;SDS011;50669;50.982;11.022;2022-08-19T06:14:18;19.60;;;17.55;;
28836;SDS011;50669;50.982;11.022;2022-08-19T06:16:46;20.55;;;18.25;;
28836;SDS011;50669;50.982;11.022;2022-08-19T06:19:17;21.90;;;17.85;;
28836;SDS011;50669;50.982;11.022;2022-08-19T06:21:48;17.10;;;14.27;;
28836;SDS011;50669;50.982;11.022;2022-08-19T06:24:16;19.13;;;14.50;;
28836;SDS011;50669;50.982;11.022;2022-08-19T06:26:45;16.15;;;13.30;;
28836;SDS011;50669;50.982;11.022;2022-08-19T06:29:12;17.00;;;13.20;;
28836;SDS011;50669;50.982;11.022;2022-08-19T06:31:41;15.38;;;13.38;;
28836;SDS011;50669;50.982;11.022;2022-08-19T06:34:11;13.65;;;12.15;;
28836;SDS011;50669;50.982;11.022;2022-08-19T06:36:39;13.52;;;12.20;;
28836;SDS011;50669;50.982;11.022;2022-08-19T06:39:11;17.08;;;12.15;;
28836;SDS011;50669;50.982;11.022;2022-08-19T06:41:44;15.40;;;11.63;;
28836;SDS011;50669;50.982;11.022;2022-08-19T06:44:12;12.55;;;10.60;;
28836;SDS011;50669;50.982;11.022;2022-08-19T06:46:41;11.10;;;9.93;;
28836;SDS011;50669;50.982;11.022;2022-08-19T06:49:08;18.48;;;11.27;;
28836;SDS011;50669;50.982;11.022;2022-08-19T06:51:38;13.38;;;9.63;;
28836;SDS011;50669;50.982;11.022;2022-08-19T06:54:08;13.90;;;9.95;;
28836;SDS011;50669;50.982;11.022;2022-08-19T06:56:37;16.85;;;10.90;;
28836;SDS011;50669;50.982;11.022;2022-08-19T06:59:10;11.65;;;10.18;;
28836;SDS011;50669;50.982;11.022;2022-08-19T07:01:47;10.40;;;9.30;;
28836;SDS011;50669;50.982;11.022;2022-08-19T07:04:18;10.95;;;9.10;;
28836;SDS011;50669;50.982;11.022;2022-08-19T07:06:47;10.20;;;9.18;;
28836;SDS011;50669;50.982;11.022;2022-08-19T07:09:14;10.40;;;9.13;;
28836;SDS011;50669;50.982;11.022;2022-08-19T07:11:46;10.77;;;8.68;;
28836;SDS011;50669;50.982;11.022;2022-08-19T07:14:14;11.70;;;8.98;;
28836;SDS011;50669;50.982;11.022;2022-08-19T07:16:43;12.10;;;8.57;;
28836;SDS011;50669;50.982;11.022;2022-08-19T07:19:14;12.80;;;7.65;;
28836;SDS011;50669;50.982;11.022;2022-08-19T07:21:43;9.15;;;7.45;;
28836;SDS011;50669;50.982;11.022;2022-08-19T07:24:08;9.43;;;7.53;;
28836;SDS011;50669;50.982;11.022;2022-08-19T07:26:37;7.65;;;6.60;;
28836;SDS011;50669;50.982;11.022;2022-08-19T07:29:08;10.07;;;6.68;;
28836;SDS011;50669;50.982;11.022;2022-08-19T07:31:34;10.90;;;6.43;;
28836;SDS011;50669;50.982;11.022;2022-08-19T07:34:04;9.43;;;6.47;;
28836;SDS011;50669;50.982;11.022;2022-08-19T07:36:32;10.95;;;6.05;;
28836;SDS011;50669;50.982;11.022;2022-08-19T07:39:00;7.88;;;6.50;;
28836;SDS011;50669;50.982;11.022;2022-08-19T07:41:28;10.90;;;6.95;;
28836;SDS011;50669;50.982;11.022;2022-08-19T07:43:57;6.15;;;5.07;;
28836;SDS011;50669;50.982;11.022;2022-08-19T07:46:30;7.90;;;5.63;;
28836;SDS011;50669;50.982;11.022;2022-08-19T07:48:56;6.88;;;5.70;;
28836;SDS011;50669;50.982;11.022;2022-08-19T07:51:25;10.13;;;6.28;;
28836;SDS011;50669;50.982;11.022;2022-08-19T07:53:52;7.50;;;6.32;;
28836;SDS011;50669;50.982;11.022;2022-08-19T07:56:18;7.13;;;5.32;;
28836;SDS011;50669;50.982;11.022;2022-08-19T07:58:45;6.85;;;5.18;;
28836;SDS011;50669;50.982;11.022;2022-08-19T08:01:14;7.38;;;5.43;;
28836;SDS011;50669;50.982;11.022;2022-08-19T08:03:47;6.82;;;5.72;;
28836;SDS011;50669;50.982;11.022;2022-08-19T08:06:31;7.18;;;6.15;;
28836;SDS011;50669;50.982;11.022;2022-08-19T08:09:17;7.32;;;5.78;;
28836;SDS011;50669;50.982;11.022;2022-08-19T08:12:00;5.82;;;5.25;;
28836;SDS011;50669;50.982;11.022;2022-08-19T08:14:54;6.72;;;4.60;;
28836;SDS011;50669;50.982;11.022;2022-08-19T08:17:26;23.17;;;6.30;;
28836;SDS011;50669;50.982;11.022;2022-08-19T08:19:54;17.35;;;5.55;;
28836;SDS011;50669;50.982;11.022;2022-08-19T08:22:23;17.52;;;5.93;;
28836;SDS011;50669;50.982;11.022;2022-08-19T08:25:09;18.70;;;6.03;;
28836;SDS011;50669;50.982;11.022;2022-08-19T08:27:40;17.42;;;6.30;;
28836;SDS011;50669;50.982;11.022;2022-08-19T08:30:07;10.63;;;5.07;;
28836;SDS011;50669;50.982;11.022;2022-08-19T08:32:37;10.60;;;4.90;;
28836;SDS011;50669;50.982;11.022;2022-08-19T08:35:07;7.03;;;4.82;;
28836;SDS011;50669;50.982;11.022;2022-08-19T08:37:35;7.75;;;4.40;;
28836;SDS011;50669;50.982;11.022;2022-08-19T08:40:45;7.97;;;4.20;;
28836;SDS011;50669;50.982;11.022;2022-08-19T08:43:14;9.50;;;5.70;;
28836;SDS011;50669;50.982;11.022;2022-08-19T08:46:19;9.45;;;5.20;;
28836;SDS011;50669;50.982;11.022;2022-08-19T08:51:20;5.60;;;4.75;;
28836;SDS011;50669;50.982;11.022;2022-08-19T08:53:53;6.03;;;4.95;;
28836;SDS011;50669;50.982;11.022;2022-08-19T08:56:22;8.02;;;5.10;;
28836;SDS011;50669;50.982;11.022;2022-08-19T09:01:30;6.82;;;4.57;;
28836;SDS011;50669;50.982;11.022;2022-08-19T09:03:56;6.07;;;4.47;;
28836;SDS011;50669;50.982;11.022;2022-08-19T09:09:09;5.38;;;3.97;;
28836;SDS011;50669;50.982;11.022;2022-08-19T09:17:07;5.75;;;3.60;;
28836;SDS011;50669;50.982;11.022;2022-08-19T09:19:46;5.93;;;3.38;;
28836;SDS011;50669;50.982;11.022;2022-08-19T09:22:17;3.33;;;2.92;;
28836;SDS011;50669;50.982;11.022;2022-08-19T09:24:49;4.10;;;2.70;;
28836;SDS011;50669;50.982;11.022;2022-08-19T09:27:17;3.33;;;2.65;;
28836;SDS011;50669;50.982;11.022;2022-08-19T09:29:43;4.00;;;2.80;;
28836;SDS011;50669;50.982;11.022;2022-08-19T09:32:09;4.30;;;2.83;;
28836;SDS011;50669;50.982;11.022;2022-08-19T09:34:37;4.20;;;2.28;;
28836;SDS011;50669;50.982;11.022;2022-08-19T09:37:03;3.90;;;2.83;;
28836;SDS011;50669;50.982;11.022;2022-08-19T09:39:30;4.05;;;2.58;;
28836;SDS011;50669;50.982;11.022;2022-08-19T09:41:58;5.85;;;2.95;;
28836;SDS011;50669;50.982;11.022;2022-08-19T09:44:24;3.70;;;2.90;;
28836;SDS011;50669;50.982;11.022;2022-08-19T09:46:50;4.68;;;2.35;;
28836;SDS011;50669;50.982;11.022;2022-08-19T09:49:16;2.78;;;2.38;;
28836;SDS011;50669;50.982;11.022;2022-08-19T09:51:48;4.57;;;2.70;;
28836;SDS011;50669;50.982;11.022;2022-08-19T09:54:15;5.97;;;2.30;;
28836;SDS011;50669;50.982;11.022;2022-08-19T09:56:40;7.00;;;2.63;;
28836;SDS011;50669;50.982;11.022;2022-08-19T09:59:09;5.43;;;2.45;;
28836;SDS011;50669;50.982;11.022;2022-08-19T10:01:37;6.07;;;2.92;;
28836;SDS011;50669;50.982;11.022;2022-08-19T10:04:02;6.35;;;2.55;;
28836;SDS011;50669;50.982;11.022;2022-08-19T10:06:33;3.92;;;2.90;;
28836;SDS011;50669;50.982;11.022;2022-08-19T10:09:00;4.85;;;2.65;;
28836;SDS011;50669;50.982;11.022;2022-08-19T10:11:29;5.45;;;2.88;;
28836;SDS011;50669;50.982;11.022;2022-08-19T10:13:57;4.22;;;3.03;;
28836;SDS011;50669;50.982;11.022;2022-08-19T10:16:24;3.67;;;2.67;;
28836;SDS011;50669;50.982;11.022;2022-08-19T10:18:50;4.60;;;2.90;;
28836;SDS011;50669;50.982;11.022;2022-08-19T10:21:25;4.40;;;2.65;;
28836;SDS011;50669;50.982;11.022;2022-08-19T10:23:54;4.93;;;2.63;;
28836;SDS011;50669;50.982;11.022;2022-08-19T10:26:24;3.65;;;2.55;;
28836;SDS011;50669;50.982;11.022;2022-08-19T10:28:52;4.43;;;2.40;;
28836;SDS011;50669;50.982;11.022;2022-08-19T10:31:20;4.45;;;2.20;;
28836;SDS011;50669;50.982;11.022;2022-08-19T10:33:48;4.30;;;2.60;;
28836;SDS011;50669;50.982;11.022;2022-08-19T10:36:17;6.10;;;2.75;;
28836;SDS011;50669;50.982;11.022;2022-08-19T10:38:48;3.17;;;2.88;;
28836;SDS011;50669;50.982;11.022;2022-08-19T10:41:19;5.85;;;3.08;;
28836;SDS011;50669;50.982;11.022;2022-08-19T10:43:50;6.55;;;3.00;;
28836;SDS011;50669;50.982;11.022;2022-08-19T10:46:17;4.28;;;3.67;;
28836;SDS011;50669;50.982;11.022;2022-08-19T10:48:45;5.97;;;3.40;;
28836;SDS011;50669;50.982;11.022;2022-08-19T10:51:14;5.50;;;4.15;;
28836;SDS011;50669;50.982;11.022;2022-08-19T10:53:59;6.55;;;4.70;;
28836;SDS011;50669;50.982;11.022;2022-08-19T10:56:27;8.80;;;5.15;;
28836;SDS011;50669;50.982;11.022;2022-08-19T10:59:12;7.53;;;5.38;;
28836;SDS011;50669;50.982;11.022;2022-08-19T11:01:39;8.60;;;6.10;;
28836;SDS011;50669;50.982;11.022;2022-08-19T11:04:08;8.57;;;6.75;;
28836;SDS011;50669;50.982;11.022;2022-08-19T11:06:38;10.48;;;7.47;;
28836;SDS011;50669;50.982;11.022;2022-08-19T11:09:06;8.52;;;6.40;;
28836;SDS011;50669;50.982;11.022;2022-08-19T11:11:35;7.22;;;6.30;;
28836;SDS011;50669;50.982;11.022;2022-08-19T11:14:05;10.60;;;6.35;;
28836;SDS011;50669;50.982;11.022;2022-08-19T11:16:32;6.78;;;6.10;;
28836;SDS011;50669;50.982;11.022;2022-08-19T11:18:58;7.22;;;5.30;;
28836;SDS011;50669;50.982;11.022;2022-08-19T11:21:31;7.82;;;6.30;;
28836;SDS011;50669;50.982;11.022;2022-08-19T11:24:00;7.55;;;6.75;;
28836;SDS011;50669;50.982;11.022;2022-08-19T11:26:31;8.38;;;5.85;;
28836;SDS011;50669;50.982;11.022;2022-08-19T11:28:58;6.95;;;6.18;;
28836;SDS011;50669;50.982;11.022;2022-08-19T11:31:34;8.48;;;6.25;;
28836;SDS011;50669;50.982;11.022;2022-08-19T11:34:03;7.13;;;5.80;;
28836;SDS011;50669;50.982;11.022;2022-08-19T11:36:32;8.98;;;6.50;;
28836;SDS011;50669;50.982;11.022;2022-08-19T11:38:59;8.88;;;6.10;;
28836;SDS011;50669;50.982;11.022;2022-08-19T11:41:25;7.75;;;6.95;;
28836;SDS011;50669;50.982;11.022;2022-08-19T11:43:53;6.38;;;5.78;;
28836;SDS011;50669;50.982;11.022;2022-08-19T11:46:20;7.65;;;5.93;;
28836;SDS011;50669;50.982;11.022;2022-08-19T11:48:50;6.82;;;5.38;;
28836;SDS011;50669;50.982;11.022;2022-08-19T11:51:17;8.50;;;6.25;;
28836;SDS011;50669;50.982;11.022;2022-08-19T11:53:46;6.00;;;4.68;;
28836;SDS011;50669;50.982;11.022;2022-08-19T11:56:15;8.80;;;4.47;;
28836;SDS011;50669;50.982;11.022;2022-08-19T11:58:44;5.45;;;4.90;;
28836;SDS011;50669;50.982;11.022;2022-08-19T12:01:13;5.50;;;4.40;;
28836;SDS011;50669;50.982;11.022;2022-08-19T12:03:41;8.40;;;4.82;;
28836;SDS011;50669;50.982;11.022;2022-08-19T12:06:09;5.63;;;4.85;;
28836;SDS011;50669;50.982;11.022;2022-08-19T12:08:39;8.32;;;5.22;;
28836;SDS011;50669;50.982;11.022;2022-08-19T12:11:06;7.07;;;5.43;;
28836;SDS011;50669;50.982;11.022;2022-08-19T12:13:33;5.13;;;4.43;;
28836;SDS011;50669;50.982;11.022;2022-08-19T12:16:00;5.18;;;4.68;;
28836;SDS011;50669;50.982;11.022;2022-08-19T12:18:34;10.73;;;6.70;;
28836;SDS011;50669;50.982;11.022;2022-08-19T12:20:59;5.07;;;4.20;;
28836;SDS011;50669;50.982;11.022;2022-08-19T12:23:26;5.43;;;4.60;;
28836;SDS011;50669;50.982;11.022;2022-08-19T12:25:54;4.45;;;4.03;;
28836;SDS011;50669;50.982;11.022;2022-08-19T12:28:22;7.15;;;3.97;;
28836;SDS011;50669;50.982;11.022;2022-08-19T12:30:51;5.72;;;4.90;;
28836;SDS011;50669;50.982;11.022;2022-08-19T12:33:17;4.72;;;3.75;;
28836;SDS011;50669;50.982;11.022;2022-08-19T12:35:46;4.35;;;3.53;;
28836;SDS011;50669;50.982;11.022;2022-08-19T12:38:12;5.75;;;4.85;;
28836;SDS011;50669;50.982;11.022;2022-08-19T12:40:41;3.70;;;3.40;;
28836;SDS011;50669;50.982;11.022;2022-08-19T12:43:10;5.25;;;3.97;;
28836;SDS011;50669;50.982;11.022;2022-08-19T12:45:36;8.07;;;4.07;;
28836;SDS011;50669;50.982;11.022;2022-08-19T12:48:03;3.42;;;3.10;;
28836;SDS011;50669;50.982;11.022;2022-08-19T12:50:33;4.00;;;3.30;;
28836;SDS011;50669;50.982;11.022;2022-08-19T12:52:59;3.55;;;3.20;;
28836;SDS011;50669;50.982;11.022;2022-08-19T12:55:26;5.13;;;3.35;;
28836;SDS011;50669;50.982;11.022;2022-08-19T12:57:53;3.83;;;3.45;;
28836;SDS011;50669;50.982;11.022;2022-08-19T13:00:20;3.92;;;2.92;;
28836;SDS011;50669;50.982;11.022;2022-08-19T13:02:47;3.47;;;3.15;;
28836;SDS011;50669;50.982;11.022;2022-08-19T13:05:22;5.50;;;3.13;;
28836;SDS011;50669;50.982;11.022;2022-08-19T13:07:51;5.65;;;3.30;;
28836;SDS011;50669;50.982;11.022;2022-08-19T13:10:21;5.35;;;3.17;;
28836;SDS011;50669;50.982;11.022;2022-08-19T13:12:52;3.08;;;2.78;;
28836;SDS011;50669;50.982;11.022;2022-08-19T13:15:19;3.80;;;2.53;;
28836;SDS011;50669;50.982;11.022;2022-08-19T13:17:48;2.90;;;2.63;;
28836;SDS011;50669;50.982;11.022;2022-08-19T13:20:17;4.53;;;2.78;;
28836;SDS011;50669;50.982;11.022;2022-08-19T13:22:44;4.50;;;3.10;;
28836;SDS011;50669;50.982;11.022;2022-08-19T13:25:11;7.53;;;3.30;;
28836;SDS011;50669;50.982;11.022;2022-08-19T13:27:37;4.88;;;3.08;;
28836;SDS011;50669;50.982;11.022;2022-08-19T13:30:07;2.53;;;2.30;;
28836;SDS011;50669;50.982;11.022;2022-08-19T13:32:53;3.75;;;2.60;;
28836;SDS011;50669;50.982;11.022;2022-08-19T13:35:41;3.53;;;2.03;;
28836;SDS011;50669;50.982;11.022;2022-08-19T13:38:19;1.98;;;1.80;;
28836;SDS011;50669;50.982;11.022;2022-08-19T13:40:48;1.70;;;1.60;;
28836;SDS011;50669;50.982;11.022;2022-08-19T13:43:18;2.22;;;1.63;;
28836;SDS011;50669;50.982;11.022;2022-08-19T13:45:48;2.85;;;1.77;;
28836;SDS011;50669;50.982;11.022;2022-08-19T13:48:20;2.33;;;1.65;;
28836;SDS011;50669;50.982;11.022;2022-08-19T13:50:47;2.20;;;1.77;;
28836;SDS011;50669;50.982;11.022;2022-08-19T13:53:13;5.00;;;2.08;;
28836;SDS011;50669;50.982;11.022;2022-08-19T13:55:44;2.88;;;1.60;;
28836;SDS011;50669;50.982;11.022;2022-08-19T13:58:10;1.30;;;1.20;;
28836;SDS011;50669;50.982;11.022;2022-08-19T14:00:41;2.33;;;1.40;;
28836;SDS011;50669;50.982;11.022;2022-08-19T14:03:09;3.30;;;2.15;;
28836;SDS011;50669;50.982;11.022;2022-08-19T14:05:36;1.63;;;1.27;;
28836;SDS011;50669;50.982;11.022;2022-08-19T14:08:04;4.30;;;1.55;;
28836;SDS011;50669;50.982;11.022;2022-08-19T14:10:30;4.20;;;2.10;;
28836;SDS011;50669;50.982;11.022;2022-08-19T14:12:57;5.15;;;1.75;;
28836;SDS011;50669;50.982;11.022;2022-08-19T14:15:27;2.58;;;2.15;;
28836;SDS011;50669;50.982;11.022;2022-08-19T14:17:56;2.22;;;1.70;;
28836;SDS011;50669;50.982;11.022;2022-08-19T14:20:22;3.05;;;1.60;;
28836;SDS011;50669;50.982;11.022;2022-08-19T14:22:48;2.55;;;1.42;;
28836;SDS011;50669;50.982;11.022;2022-08-19T14:25:18;3.15;;;1.75;;
28836;SDS011;50669;50.982;11.022;2022-08-19T14:27:46;2.88;;;1.60;;
28836;SDS011;50669;50.982;11.022;2022-08-19T14:30:12;7.25;;;6.55;;
28836;SDS011;50669;50.982;11.022;2022-08-19T14:32:43;4.47;;;3.60;;
28836;SDS011;50669;50.982;11.022;2022-08-19T14:35:11;3.85;;;1.77;;
28836;SDS011;50669;50.982;11.022;2022-08-19T14:37:39;3.38;;;1.90;;
28836;SDS011;50669;50.982;11.022;2022-08-19T14:40:06;3.47;;;1.80;;
28836;SDS011;50669;50.982;11.022;2022-08-19T14:42:33;2.53;;;2.05;;
28836;SDS011;50669;50.982;11.022;2022-08-19T14:45:01;1.88;;;1.77;;
28836;SDS011;50669;50.982;11.022;2022-08-19T14:47:30;3.03;;;1.80;;
28836;SDS011;50669;50.982;11.022;2022-08-19T14:50:00;3.33;;;2.05;;
28836;SDS011;50669;50.982;11.022;2022-08-19T14:52:26;2.75;;;1.90;;